Airport METAR Information

LTBA 011020Z 02016KT 9999 SCT016 BKN030 09/05 Q1017 NOSIG

VATSIM Livefeed

Card image cap

ATC Bookings

Position Full Name Date Time (UTC)
LTFJ_GND Kubilay AYDIN 02/04/2020 1230 ‐ 2030
LTBJ_GND Gursel 02/04/2020 1300 ‐ 2100

Card image cap

Active ATC

No controllers online

Blog

Read our latest news and get to know us better.